sensor_id;sensor_type;location;lat;lon;timestamp;P1;durP1;ratioP1;P2;durP2;ratioP2
4616;SDS011;2321;42.704;23.384;2024-02-23T00:00:36;6.20;;;5.33;;
4616;SDS011;2321;42.704;23.384;2024-02-23T00:03:03;13.50;;;6.33;;
4616;SDS011;2321;42.704;23.384;2024-02-23T00:05:30;45.47;;;14.23;;
4616;SDS011;2321;42.704;23.384;2024-02-23T00:07:58;19.70;;;7.97;;
4616;SDS011;2321;42.704;23.384;2024-02-23T00:10:26;13.80;;;7.93;;
4616;SDS011;2321;42.704;23.384;2024-02-23T00:12:53;17.03;;;6.73;;
4616;SDS011;2321;42.704;23.384;2024-02-23T00:15:21;33.77;;;14.70;;
4616;SDS011;2321;42.704;23.384;2024-02-23T00:17:49;28.97;;;11.77;;
4616;SDS011;2321;42.704;23.384;2024-02-23T00:20:16;23.23;;;11.63;;
4616;SDS011;2321;42.704;23.384;2024-02-23T00:22:43;29.67;;;10.47;;
4616;SDS011;2321;42.704;23.384;2024-02-23T00:25:10;22.53;;;8.27;;
4616;SDS011;2321;42.704;23.384;2024-02-23T00:27:39;46.07;;;10.90;;
4616;SDS011;2321;42.704;23.384;2024-02-23T00:30:07;21.97;;;8.60;;
4616;SDS011;2321;42.704;23.384;2024-02-23T00:32:34;36.13;;;8.07;;
4616;SDS011;2321;42.704;23.384;2024-02-23T00:35:01;15.20;;;7.30;;
4616;SDS011;2321;42.704;23.384;2024-02-23T00:37:29;40.77;;;7.53;;
4616;SDS011;2321;42.704;23.384;2024-02-23T00:40:00;10.13;;;6.80;;
4616;SDS011;2321;42.704;23.384;2024-02-23T00:42:29;20.00;;;8.77;;
4616;SDS011;2321;42.704;23.384;2024-02-23T00:44:57;16.80;;;7.73;;
4616;SDS011;2321;42.704;23.384;2024-02-23T00:47:24;19.97;;;8.30;;
4616;SDS011;2321;42.704;23.384;2024-02-23T00:49:53;30.20;;;9.80;;
4616;SDS011;2321;42.704;23.384;2024-02-23T00:52:20;16.60;;;6.53;;
4616;SDS011;2321;42.704;23.384;2024-02-23T00:54:47;18.63;;;5.23;;
4616;SDS011;2321;42.704;23.384;2024-02-23T00:57:14;14.77;;;6.10;;
4616;SDS011;2321;42.704;23.384;2024-02-23T00:59:44;26.20;;;11.13;;
4616;SDS011;2321;42.704;23.384;2024-02-23T01:02:12;23.90;;;10.33;;
4616;SDS011;2321;42.704;23.384;2024-02-23T01:04:39;35.00;;;13.33;;
4616;SDS011;2321;42.704;23.384;2024-02-23T01:07:06;24.03;;;11.30;;
4616;SDS011;2321;42.704;23.384;2024-02-23T01:09:33;13.17;;;7.07;;
4616;SDS011;2321;42.704;23.384;2024-02-23T01:12:00;8.03;;;5.80;;
4616;SDS011;2321;42.704;23.384;2024-02-23T01:14:27;10.13;;;4.67;;
4616;SDS011;2321;42.704;23.384;2024-02-23T01:16:55;11.17;;;6.37;;
4616;SDS011;2321;42.704;23.384;2024-02-23T01:19:23;13.93;;;6.83;;
4616;SDS011;2321;42.704;23.384;2024-02-23T01:21:50;11.27;;;7.17;;
4616;SDS011;2321;42.704;23.384;2024-02-23T01:24:24;10.73;;;6.40;;
4616;SDS011;2321;42.704;23.384;2024-02-23T01:26:53;30.90;;;9.57;;
4616;SDS011;2321;42.704;23.384;2024-02-23T01:29:20;15.03;;;7.97;;
4616;SDS011;2321;42.704;23.384;2024-02-23T01:31:47;21.00;;;8.73;;
4616;SDS011;2321;42.704;23.384;2024-02-23T01:34:14;17.57;;;6.90;;
4616;SDS011;2321;42.704;23.384;2024-02-23T01:36:43;11.60;;;6.20;;
4616;SDS011;2321;42.704;23.384;2024-02-23T01:39:10;18.23;;;9.00;;
4616;SDS011;2321;42.704;23.384;2024-02-23T01:41:37;9.10;;;7.20;;
4616;SDS011;2321;42.704;23.384;2024-02-23T01:44:04;28.73;;;8.20;;
4616;SDS011;2321;42.704;23.384;2024-02-23T01:46:31;15.50;;;6.77;;
4616;SDS011;2321;42.704;23.384;2024-02-23T01:48:59;17.33;;;7.03;;
4616;SDS011;2321;42.704;23.384;2024-02-23T01:51:26;10.70;;;6.47;;
4616;SDS011;2321;42.704;23.384;2024-02-23T01:53:55;12.77;;;5.63;;
4616;SDS011;2321;42.704;23.384;2024-02-23T01:56:22;10.77;;;6.63;;
4616;SDS011;2321;42.704;23.384;2024-02-23T01:58:49;5.97;;;5.23;;
4616;SDS011;2321;42.704;23.384;2024-02-23T02:01:16;6.10;;;4.90;;
4616;SDS011;2321;42.704;23.384;2024-02-23T02:03:43;9.90;;;5.20;;
4616;SDS011;2321;42.704;23.384;2024-02-23T02:06:10;12.10;;;7.57;;
4616;SDS011;2321;42.704;23.384;2024-02-23T02:08:38;9.70;;;5.80;;
4616;SDS011;2321;42.704;23.384;2024-02-23T02:11:07;9.67;;;4.87;;
4616;SDS011;2321;42.704;23.384;2024-02-23T02:13:35;9.93;;;6.67;;
4616;SDS011;2321;42.704;23.384;2024-02-23T02:16:02;11.57;;;6.17;;
4616;SDS011;2321;42.704;23.384;2024-02-23T02:18:29;12.80;;;4.63;;
4616;SDS011;2321;42.704;23.384;2024-02-23T02:20:56;5.80;;;4.17;;
4616;SDS011;2321;42.704;23.384;2024-02-23T02:23:24;6.30;;;4.80;;
4616;SDS011;2321;42.704;23.384;2024-02-23T02:25:52;5.87;;;5.33;;
4616;SDS011;2321;42.704;23.384;2024-02-23T02:28:21;8.77;;;6.20;;
4616;SDS011;2321;42.704;23.384;2024-02-23T02:30:48;6.50;;;5.27;;
4616;SDS011;2321;42.704;23.384;2024-02-23T02:33:16;4.77;;;4.37;;
4616;SDS011;2321;42.704;23.384;2024-02-23T02:35:43;10.07;;;5.37;;
4616;SDS011;2321;42.704;23.384;2024-02-23T02:38:10;14.93;;;6.70;;
4616;SDS011;2321;42.704;23.384;2024-02-23T02:40:38;7.90;;;5.87;;
4616;SDS011;2321;42.704;23.384;2024-02-23T02:43:05;12.60;;;7.70;;
4616;SDS011;2321;42.704;23.384;2024-02-23T02:45:34;10.90;;;6.30;;
4616;SDS011;2321;42.704;23.384;2024-02-23T02:48:03;4.73;;;4.23;;
4616;SDS011;2321;42.704;23.384;2024-02-23T02:50:30;4.60;;;3.83;;
4616;SDS011;2321;42.704;23.384;2024-02-23T02:52:57;4.37;;;3.87;;
4616;SDS011;2321;42.704;23.384;2024-02-23T02:55:24;4.23;;;3.60;;
4616;SDS011;2321;42.704;23.384;2024-02-23T02:57:52;4.43;;;4.00;;
4616;SDS011;2321;42.704;23.384;2024-02-23T03:00:19;12.53;;;4.47;;
4616;SDS011;2321;42.704;23.384;2024-02-23T03:02:47;4.33;;;4.00;;
4616;SDS011;2321;42.704;23.384;2024-02-23T03:05:14;4.83;;;3.73;;
4616;SDS011;2321;42.704;23.384;2024-02-23T03:07:41;4.03;;;3.73;;
4616;SDS011;2321;42.704;23.384;2024-02-23T03:10:08;5.93;;;4.93;;
4616;SDS011;2321;42.704;23.384;2024-02-23T03:12:36;5.17;;;4.53;;
4616;SDS011;2321;42.704;23.384;2024-02-23T03:15:03;4.47;;;3.47;;
4616;SDS011;2321;42.704;23.384;2024-02-23T03:17:31;6.63;;;3.43;;
4616;SDS011;2321;42.704;23.384;2024-02-23T03:19:59;14.87;;;4.70;;
4616;SDS011;2321;42.704;23.384;2024-02-23T03:22:27;6.13;;;4.67;;
4616;SDS011;2321;42.704;23.384;2024-02-23T03:24:54;12.63;;;5.97;;
4616;SDS011;2321;42.704;23.384;2024-02-23T03:27:21;4.87;;;4.47;;
4616;SDS011;2321;42.704;23.384;2024-02-23T03:29:55;10.93;;;3.80;;
4616;SDS011;2321;42.704;23.384;2024-02-23T03:32:22;9.60;;;4.37;;
4616;SDS011;2321;42.704;23.384;2024-02-23T03:34:49;4.53;;;4.13;;
4616;SDS011;2321;42.704;23.384;2024-02-23T03:37:17;13.90;;;4.93;;
4616;SDS011;2321;42.704;23.384;2024-02-23T03:39:44;26.83;;;5.00;;
4616;SDS011;2321;42.704;23.384;2024-02-23T03:42:13;3.90;;;3.50;;
4616;SDS011;2321;42.704;23.384;2024-02-23T03:44:40;5.47;;;3.60;;
4616;SDS011;2321;42.704;23.384;2024-02-23T03:47:08;12.10;;;6.10;;
4616;SDS011;2321;42.704;23.384;2024-02-23T03:49:35;10.67;;;6.23;;
4616;SDS011;2321;42.704;23.384;2024-02-23T03:52:02;11.10;;;6.97;;
4616;SDS011;2321;42.704;23.384;2024-02-23T03:54:31;9.27;;;6.73;;
4616;SDS011;2321;42.704;23.384;2024-02-23T03:56:58;14.33;;;6.53;;
4616;SDS011;2321;42.704;23.384;2024-02-23T03:59:25;12.50;;;5.70;;
4616;SDS011;2321;42.704;23.384;2024-02-23T04:01:52;10.13;;;5.57;;
4616;SDS011;2321;42.704;23.384;2024-02-23T04:04:20;83.90;;;36.80;;
4616;SDS011;2321;42.704;23.384;2024-02-23T04:06:47;161.10;;;69.27;;
4616;SDS011;2321;42.704;23.384;2024-02-23T04:09:14;56.87;;;25.50;;
4616;SDS011;2321;42.704;23.384;2024-02-23T04:11:42;35.63;;;21.00;;
4616;SDS011;2321;42.704;23.384;2024-02-23T04:14:09;77.57;;;35.87;;
4616;SDS011;2321;42.704;23.384;2024-02-23T04:16:36;44.93;;;17.50;;
4616;SDS011;2321;42.704;23.384;2024-02-23T04:19:04;51.53;;;15.47;;
4616;SDS011;2321;42.704;23.384;2024-02-23T04:21:31;6.80;;;5.60;;
4616;SDS011;2321;42.704;23.384;2024-02-23T04:23:58;27.53;;;12.50;;
4616;SDS011;2321;42.704;23.384;2024-02-23T04:26:25;17.70;;;7.80;;
4616;SDS011;2321;42.704;23.384;2024-02-23T04:28:53;24.77;;;10.80;;
4616;SDS011;2321;42.704;23.384;2024-02-23T04:31:20;8.63;;;6.47;;
4616;SDS011;2321;42.704;23.384;2024-02-23T04:33:47;16.30;;;9.40;;
4616;SDS011;2321;42.704;23.384;2024-02-23T04:36:14;18.67;;;10.00;;
4616;SDS011;2321;42.704;23.384;2024-02-23T04:38:45;16.77;;;4.20;;
4616;SDS011;2321;42.704;23.384;2024-02-23T04:41:12;4.20;;;3.83;;
4616;SDS011;2321;42.704;23.384;2024-02-23T04:43:39;17.00;;;5.70;;
4616;SDS011;2321;42.704;23.384;2024-02-23T04:46:08;29.73;;;10.53;;
4616;SDS011;2321;42.704;23.384;2024-02-23T04:48:35;15.40;;;8.17;;
4616;SDS011;2321;42.704;23.384;2024-02-23T04:51:02;33.53;;;9.17;;
4616;SDS011;2321;42.704;23.384;2024-02-23T04:53:31;27.33;;;12.90;;
4616;SDS011;2321;42.704;23.384;2024-02-23T04:56:02;17.70;;;10.50;;
4616;SDS011;2321;42.704;23.384;2024-02-23T04:58:29;13.17;;;7.10;;
4616;SDS011;2321;42.704;23.384;2024-02-23T05:00:57;5.47;;;4.00;;
4616;SDS011;2321;42.704;23.384;2024-02-23T05:03:25;14.23;;;6.50;;
4616;SDS011;2321;42.704;23.384;2024-02-23T05:05:52;9.27;;;6.33;;
4616;SDS011;2321;42.704;23.384;2024-02-23T05:08:20;5.90;;;4.87;;
4616;SDS011;2321;42.704;23.384;2024-02-23T05:10:49;13.13;;;7.07;;
4616;SDS011;2321;42.704;23.384;2024-02-23T05:13:16;21.17;;;6.53;;
4616;SDS011;2321;42.704;23.384;2024-02-23T05:15:43;12.27;;;5.87;;
4616;SDS011;2321;42.704;23.384;2024-02-23T05:18:10;7.27;;;5.30;;
4616;SDS011;2321;42.704;23.384;2024-02-23T05:20:39;15.20;;;4.63;;
4616;SDS011;2321;42.704;23.384;2024-02-23T05:23:06;10.87;;;5.60;;
4616;SDS011;2321;42.704;23.384;2024-02-23T05:25:34;4.93;;;4.43;;
4616;SDS011;2321;42.704;23.384;2024-02-23T05:28:01;7.27;;;6.13;;
4616;SDS011;2321;42.704;23.384;2024-02-23T05:30:28;7.63;;;4.03;;
4616;SDS011;2321;42.704;23.384;2024-02-23T05:32:56;8.53;;;5.47;;
4616;SDS011;2321;42.704;23.384;2024-02-23T05:35:24;18.47;;;5.47;;
4616;SDS011;2321;42.704;23.384;2024-02-23T05:37:53;4.30;;;4.10;;
4616;SDS011;2321;42.704;23.384;2024-02-23T05:40:20;7.47;;;5.00;;
4616;SDS011;2321;42.704;23.384;2024-02-23T05:42:48;7.40;;;4.90;;
4616;SDS011;2321;42.704;23.384;2024-02-23T05:45:15;7.70;;;5.30;;
4616;SDS011;2321;42.704;23.384;2024-02-23T05:47:42;18.30;;;5.43;;
4616;SDS011;2321;42.704;23.384;2024-02-23T05:50:09;13.37;;;7.50;;
4616;SDS011;2321;42.704;23.384;2024-02-23T05:52:36;10.90;;;6.37;;
4616;SDS011;2321;42.704;23.384;2024-02-23T05:55:06;22.27;;;7.60;;
4616;SDS011;2321;42.704;23.384;2024-02-23T05:57:34;16.47;;;7.90;;
4616;SDS011;2321;42.704;23.384;2024-02-23T06:00:01;11.27;;;6.50;;
4616;SDS011;2321;42.704;23.384;2024-02-23T06:02:28;33.00;;;8.57;;
4616;SDS011;2321;42.704;23.384;2024-02-23T06:04:55;15.43;;;7.53;;
4616;SDS011;2321;42.704;23.384;2024-02-23T06:07:22;16.70;;;8.50;;
4616;SDS011;2321;42.704;23.384;2024-02-23T06:09:55;26.53;;;13.80;;
4616;SDS011;2321;42.704;23.384;2024-02-23T06:14:52;27.85;;;14.50;;
4616;SDS011;2321;42.704;23.384;2024-02-23T06:17:20;23.03;;;12.80;;
4616;SDS011;2321;42.704;23.384;2024-02-23T06:19:49;30.93;;;14.37;;
4616;SDS011;2321;42.704;23.384;2024-02-23T06:22:18;41.00;;;15.63;;
4616;SDS011;2321;42.704;23.384;2024-02-23T06:24:47;19.17;;;10.07;;
4616;SDS011;2321;42.704;23.384;2024-02-23T06:27:14;32.57;;;8.77;;
4616;SDS011;2321;42.704;23.384;2024-02-23T06:29:44;9.00;;;6.57;;
4616;SDS011;2321;42.704;23.384;2024-02-23T06:32:11;7.63;;;6.63;;
4616;SDS011;2321;42.704;23.384;2024-02-23T06:34:41;6.97;;;6.03;;
4616;SDS011;2321;42.704;23.384;2024-02-23T06:37:08;9.07;;;6.20;;
4616;SDS011;2321;42.704;23.384;2024-02-23T06:39:35;8.53;;;6.60;;
4616;SDS011;2321;42.704;23.384;2024-02-23T06:42:02;11.37;;;7.13;;
4616;SDS011;2321;42.704;23.384;2024-02-23T06:44:29;11.67;;;6.50;;
4616;SDS011;2321;42.704;23.384;2024-02-23T06:46:58;12.10;;;5.50;;
4616;SDS011;2321;42.704;23.384;2024-02-23T06:49:25;8.80;;;6.20;;
4616;SDS011;2321;42.704;23.384;2024-02-23T06:51:52;11.67;;;6.87;;
4616;SDS011;2321;42.704;23.384;2024-02-23T06:54:19;8.13;;;5.77;;
4616;SDS011;2321;42.704;23.384;2024-02-23T06:56:46;11.17;;;7.40;;
4616;SDS011;2321;42.704;23.384;2024-02-23T06:59:13;11.17;;;7.20;;
4616;SDS011;2321;42.704;23.384;2024-02-23T07:01:47;13.13;;;7.73;;
4616;SDS011;2321;42.704;23.384;2024-02-23T07:04:16;10.83;;;7.47;;
4616;SDS011;2321;42.704;23.384;2024-02-23T07:06:45;8.60;;;6.73;;
4616;SDS011;2321;42.704;23.384;2024-02-23T07:09:12;15.70;;;6.60;;
4616;SDS011;2321;42.704;23.384;2024-02-23T07:11:40;18.27;;;6.50;;
4616;SDS011;2321;42.704;23.384;2024-02-23T07:14:08;8.97;;;7.17;;
4616;SDS011;2321;42.704;23.384;2024-02-23T07:16:38;6.80;;;5.20;;
4616;SDS011;2321;42.704;23.384;2024-02-23T07:19:13;8.60;;;6.33;;
4616;SDS011;2321;42.704;23.384;2024-02-23T07:21:43;10.27;;;6.10;;
4616;SDS011;2321;42.704;23.384;2024-02-23T07:24:21;32.23;;;5.87;;
4616;SDS011;2321;42.704;23.384;2024-02-23T07:26:51;11.50;;;4.67;;
4616;SDS011;2321;42.704;23.384;2024-02-23T07:29:18;7.60;;;4.50;;
4616;SDS011;2321;42.704;23.384;2024-02-23T07:31:48;13.20;;;5.80;;
4616;SDS011;2321;42.704;23.384;2024-02-23T07:34:16;11.17;;;5.20;;
4616;SDS011;2321;42.704;23.384;2024-02-23T07:36:45;7.50;;;4.70;;
4616;SDS011;2321;42.704;23.384;2024-02-23T07:39:15;8.63;;;6.23;;
4616;SDS011;2321;42.704;23.384;2024-02-23T07:41:42;7.63;;;5.27;;
4616;SDS011;2321;42.704;23.384;2024-02-23T07:44:11;11.77;;;5.80;;
4616;SDS011;2321;42.704;23.384;2024-02-23T07:46:43;8.60;;;5.07;;
4616;SDS011;2321;42.704;23.384;2024-02-23T07:49:17;11.57;;;5.57;;
4616;SDS011;2321;42.704;23.384;2024-02-23T07:51:49;8.17;;;4.87;;
4616;SDS011;2321;42.704;23.384;2024-02-23T07:54:20;3.93;;;3.60;;
4616;SDS011;2321;42.704;23.384;2024-02-23T07:56:47;11.07;;;5.10;;
4616;SDS011;2321;42.704;23.384;2024-02-23T07:59:14;7.20;;;4.70;;
4616;SDS011;2321;42.704;23.384;2024-02-23T08:01:41;5.47;;;4.97;;
4616;SDS011;2321;42.704;23.384;2024-02-23T08:04:08;10.30;;;5.60;;
4616;SDS011;2321;42.704;23.384;2024-02-23T08:06:35;5.60;;;4.10;;
4616;SDS011;2321;42.704;23.384;2024-02-23T08:09:03;8.90;;;5.77;;
4616;SDS011;2321;42.704;23.384;2024-02-23T08:11:32;7.50;;;5.77;;
4616;SDS011;2321;42.704;23.384;2024-02-23T08:13:59;6.90;;;4.50;;
4616;SDS011;2321;42.704;23.384;2024-02-23T08:16:28;8.10;;;5.10;;
4616;SDS011;2321;42.704;23.384;2024-02-23T08:18:55;10.40;;;6.33;;
4616;SDS011;2321;42.704;23.384;2024-02-23T08:21:22;6.63;;;4.90;;
4616;SDS011;2321;42.704;23.384;2024-02-23T08:23:49;7.20;;;5.37;;
4616;SDS011;2321;42.704;23.384;2024-02-23T08:26:18;9.97;;;5.60;;
4616;SDS011;2321;42.704;23.384;2024-02-23T08:28:45;8.00;;;6.40;;
4616;SDS011;2321;42.704;23.384;2024-02-23T08:31:12;11.57;;;5.23;;
4616;SDS011;2321;42.704;23.384;2024-02-23T08:33:39;10.03;;;5.27;;
4616;SDS011;2321;42.704;23.384;2024-02-23T08:36:06;6.90;;;5.00;;
4616;SDS011;2321;42.704;23.384;2024-02-23T08:38:34;12.00;;;5.60;;
4616;SDS011;2321;42.704;23.384;2024-02-23T08:41:02;9.53;;;4.87;;
4616;SDS011;2321;42.704;23.384;2024-02-23T08:43:30;10.97;;;5.40;;
4616;SDS011;2321;42.704;23.384;2024-02-23T08:45:57;5.00;;;3.77;;
4616;SDS011;2321;42.704;23.384;2024-02-23T08:48:24;9.00;;;4.43;;
4616;SDS011;2321;42.704;23.384;2024-02-23T08:50:51;7.77;;;5.00;;
4616;SDS011;2321;42.704;23.384;2024-02-23T08:53:18;7.30;;;4.40;;
4616;SDS011;2321;42.704;23.384;2024-02-23T08:55:45;22.00;;;5.87;;
4616;SDS011;2321;42.704;23.384;2024-02-23T08:58:13;8.70;;;4.53;;
4616;SDS011;2321;42.704;23.384;2024-02-23T09:00:41;4.40;;;3.20;;
4616;SDS011;2321;42.704;23.384;2024-02-23T09:03:08;5.30;;;3.33;;
4616;SDS011;2321;42.704;23.384;2024-02-23T09:05:35;5.50;;;4.10;;
4616;SDS011;2321;42.704;23.384;2024-02-23T09:08:02;5.70;;;3.83;;
4616;SDS011;2321;42.704;23.384;2024-02-23T09:10:30;11.50;;;5.17;;
4616;SDS011;2321;42.704;23.384;2024-02-23T09:12:57;5.80;;;4.17;;
4616;SDS011;2321;42.704;23.384;2024-02-23T09:15:24;6.97;;;4.93;;
4616;SDS011;2321;42.704;23.384;2024-02-23T09:17:52;4.23;;;3.87;;
4616;SDS011;2321;42.704;23.384;2024-02-23T09:20:19;6.33;;;4.10;;
4616;SDS011;2321;42.704;23.384;2024-02-23T09:22:47;10.43;;;4.37;;
4616;SDS011;2321;42.704;23.384;2024-02-23T09:25:14;4.80;;;4.00;;
4616;SDS011;2321;42.704;23.384;2024-02-23T09:27:42;22.67;;;6.00;;
4616;SDS011;2321;42.704;23.384;2024-02-23T09:30:10;13.70;;;5.10;;
4616;SDS011;2321;42.704;23.384;2024-02-23T09:32:38;12.63;;;4.43;;
4616;SDS011;2321;42.704;23.384;2024-02-23T09:35:07;9.70;;;4.10;;
4616;SDS011;2321;42.704;23.384;2024-02-23T09:37:34;8.03;;;5.17;;
4616;SDS011;2321;42.704;23.384;2024-02-23T09:40:01;4.07;;;3.70;;
4616;SDS011;2321;42.704;23.384;2024-02-23T09:42:28;3.17;;;2.53;;
4616;SDS011;2321;42.704;23.384;2024-02-23T09:44:58;4.07;;;2.83;;
4616;SDS011;2321;42.704;23.384;2024-02-23T09:47:26;3.40;;;3.10;;
4616;SDS011;2321;42.704;23.384;2024-02-23T09:49:54;3.07;;;2.77;;
4616;SDS011;2321;42.704;23.384;2024-02-23T09:52:23;3.40;;;3.10;;
4616;SDS011;2321;42.704;23.384;2024-02-23T09:54:54;2.27;;;2.17;;
4616;SDS011;2321;42.704;23.384;2024-02-23T09:57:21;2.33;;;2.20;;
4616;SDS011;2321;42.704;23.384;2024-02-23T09:59:49;4.13;;;2.63;;
4616;SDS011;2321;42.704;23.384;2024-02-23T10:02:17;3.67;;;3.23;;
4616;SDS011;2321;42.704;23.384;2024-02-23T10:04:44;2.40;;;2.30;;
4616;SDS011;2321;42.704;23.384;2024-02-23T10:07:13;2.83;;;2.33;;
4616;SDS011;2321;42.704;23.384;2024-02-23T10:09:42;1.57;;;1.57;;
4616;SDS011;2321;42.704;23.384;2024-02-23T10:12:09;2.30;;;2.10;;
4616;SDS011;2321;42.704;23.384;2024-02-23T10:14:37;4.00;;;2.90;;
4616;SDS011;2321;42.704;23.384;2024-02-23T10:17:05;2.23;;;2.03;;
4616;SDS011;2321;42.704;23.384;2024-02-23T10:19:33;2.90;;;2.40;;
4616;SDS011;2321;42.704;23.384;2024-02-23T10:22:00;3.87;;;2.57;;
4616;SDS011;2321;42.704;23.384;2024-02-23T10:24:28;2.43;;;2.23;;
4616;SDS011;2321;42.704;23.384;2024-02-23T10:26:56;2.30;;;2.20;;
4616;SDS011;2321;42.704;23.384;2024-02-23T10:29:23;2.20;;;2.10;;
4616;SDS011;2321;42.704;23.384;2024-02-23T10:31:52;4.17;;;3.80;;
4616;SDS011;2321;42.704;23.384;2024-02-23T10:34:23;2.13;;;2.03;;
4616;SDS011;2321;42.704;23.384;2024-02-23T10:36:51;7.00;;;4.30;;
4616;SDS011;2321;42.704;23.384;2024-02-23T10:39:19;4.00;;;2.50;;
4616;SDS011;2321;42.704;23.384;2024-02-23T10:41:51;2.53;;;2.20;;
4616;SDS011;2321;42.704;23.384;2024-02-23T10:44:24;3.33;;;2.27;;
4616;SDS011;2321;42.704;23.384;2024-02-23T10:46:53;5.17;;;2.30;;
4616;SDS011;2321;42.704;23.384;2024-02-23T10:49:23;3.03;;;2.70;;
4616;SDS011;2321;42.704;23.384;2024-02-23T10:51:52;2.50;;;2.30;;
4616;SDS011;2321;42.704;23.384;2024-02-23T10:54:21;2.30;;;2.20;;
4616;SDS011;2321;42.704;23.384;2024-02-23T10:56:49;3.60;;;2.30;;
4616;SDS011;2321;42.704;23.384;2024-02-23T10:59:18;2.33;;;2.20;;
4616;SDS011;2321;42.704;23.384;2024-02-23T11:01:47;1.70;;;1.60;;
4616;SDS011;2321;42.704;23.384;2024-02-23T11:04:16;2.13;;;1.97;;
4616;SDS011;2321;42.704;23.384;2024-02-23T11:06:48;2.00;;;1.90;;
4616;SDS011;2321;42.704;23.384;2024-02-23T11:09:16;3.27;;;1.67;;
4616;SDS011;2321;42.704;23.384;2024-02-23T11:11:53;1.90;;;1.80;;
4616;SDS011;2321;42.704;23.384;2024-02-23T11:14:31;1.60;;;1.60;;
4616;SDS011;2321;42.704;23.384;2024-02-23T11:16:59;1.33;;;1.33;;
4616;SDS011;2321;42.704;23.384;2024-02-23T11:19:33;1.93;;;1.83;;
4616;SDS011;2321;42.704;23.384;2024-02-23T11:22:01;1.97;;;1.80;;
4616;SDS011;2321;42.704;23.384;2024-02-23T11:24:29;4.20;;;1.57;;
4616;SDS011;2321;42.704;23.384;2024-02-23T11:26:56;11.90;;;2.10;;
4616;SDS011;2321;42.704;23.384;2024-02-23T11:29:28;4.30;;;2.10;;
4616;SDS011;2321;42.704;23.384;2024-02-23T11:31:59;1.73;;;1.67;;
4616;SDS011;2321;42.704;23.384;2024-02-23T11:34:29;1.80;;;1.60;;
4616;SDS011;2321;42.704;23.384;2024-02-23T11:36:56;3.40;;;1.83;;
4616;SDS011;2321;42.704;23.384;2024-02-23T11:39:25;1.90;;;1.57;;
4616;SDS011;2321;42.704;23.384;2024-02-23T11:41:53;3.27;;;1.57;;
4616;SDS011;2321;42.704;23.384;2024-02-23T11:44:21;1.60;;;1.50;;
4616;SDS011;2321;42.704;23.384;2024-02-23T11:46:48;3.03;;;1.57;;
4616;SDS011;2321;42.704;23.384;2024-02-23T11:49:17;1.20;;;1.20;;
4616;SDS011;2321;42.704;23.384;2024-02-23T11:51:44;2.30;;;1.60;;
4616;SDS011;2321;42.704;23.384;2024-02-23T11:54:11;2.77;;;1.30;;
4616;SDS011;2321;42.704;23.384;2024-02-23T11:56:39;1.60;;;1.50;;
4616;SDS011;2321;42.704;23.384;2024-02-23T11:59:07;1.47;;;1.37;;
4616;SDS011;2321;42.704;23.384;2024-02-23T12:01:35;2.17;;;1.63;;
4616;SDS011;2321;42.704;23.384;2024-02-23T12:04:02;4.43;;;1.80;;
4616;SDS011;2321;42.704;23.384;2024-02-23T12:06:31;2.33;;;1.67;;
4616;SDS011;2321;42.704;23.384;2024-02-23T12:08:58;1.47;;;1.23;;
4616;SDS011;2321;42.704;23.384;2024-02-23T12:11:25;1.50;;;1.50;;
4616;SDS011;2321;42.704;23.384;2024-02-23T12:13:53;1.33;;;1.33;;
4616;SDS011;2321;42.704;23.384;2024-02-23T12:16:22;4.93;;;1.97;;
4616;SDS011;2321;42.704;23.384;2024-02-23T12:18:52;8.03;;;1.53;;
4616;SDS011;2321;42.704;23.384;2024-02-23T12:21:20;2.77;;;2.50;;
4616;SDS011;2321;42.704;23.384;2024-02-23T12:23:49;1.23;;;1.23;;
4616;SDS011;2321;42.704;23.384;2024-02-23T12:26:17;1.80;;;1.70;;
4616;SDS011;2321;42.704;23.384;2024-02-23T12:28:45;1.60;;;1.50;;
4616;SDS011;2321;42.704;23.384;2024-02-23T12:31:12;1.83;;;1.70;;
4616;SDS011;2321;42.704;23.384;2024-02-23T12:33:40;7.60;;;1.77;;
4616;SDS011;2321;42.704;23.384;2024-02-23T12:36:07;1.13;;;1.13;;
4616;SDS011;2321;42.704;23.384;2024-02-23T12:38:35;1.60;;;1.60;;
4616;SDS011;2321;42.704;23.384;2024-02-23T12:41:04;2.80;;;2.23;;
4616;SDS011;2321;42.704;23.384;2024-02-23T12:43:31;1.60;;;1.60;;
4616;SDS011;2321;42.704;23.384;2024-02-23T12:45:58;1.60;;;1.50;;
4616;SDS011;2321;42.704;23.384;2024-02-23T12:48:26;1.73;;;1.73;;
4616;SDS011;2321;42.704;23.384;2024-02-23T12:50:53;1.70;;;1.60;;
4616;SDS011;2321;42.704;23.384;2024-02-23T12:53:31;1.77;;;1.50;;
4616;SDS011;2321;42.704;23.384;2024-02-23T12:56:00;1.50;;;1.50;;
4616;SDS011;2321;42.704;23.384;2024-02-23T12:58:29;7.67;;;2.17;;
4616;SDS011;2321;42.704;23.384;2024-02-23T13:00:56;1.00;;;0.97;;
4616;SDS011;2321;42.704;23.384;2024-02-23T13:03:24;1.40;;;1.40;;
4616;SDS011;2321;42.704;23.384;2024-02-23T13:05:52;3.20;;;1.60;;
4616;SDS011;2321;42.704;23.384;2024-02-23T13:08:19;2.40;;;1.60;;
4616;SDS011;2321;42.704;23.384;2024-02-23T13:10:47;1.30;;;1.30;;
4616;SDS011;2321;42.704;23.384;2024-02-23T13:13:14;1.97;;;1.13;;
4616;SDS011;2321;42.704;23.384;2024-02-23T13:15:43;1.67;;;1.57;;
4616;SDS011;2321;42.704;23.384;2024-02-23T13:18:10;1.57;;;1.53;;
4616;SDS011;2321;42.704;23.384;2024-02-23T13:20:37;1.47;;;1.40;;
4616;SDS011;2321;42.704;23.384;2024-02-23T13:23:04;1.30;;;1.30;;
4616;SDS011;2321;42.704;23.384;2024-02-23T13:25:33;14.33;;;1.73;;
4616;SDS011;2321;42.704;23.384;2024-02-23T13:28:00;9.10;;;1.40;;
4616;SDS011;2321;42.704;23.384;2024-02-23T13:30:29;2.00;;;1.80;;
4616;SDS011;2321;42.704;23.384;2024-02-23T13:32:57;1.70;;;1.60;;
4616;SDS011;2321;42.704;23.384;2024-02-23T13:35:25;1.30;;;1.30;;
4616;SDS011;2321;42.704;23.384;2024-02-23T13:37:52;19.87;;;2.00;;
4616;SDS011;2321;42.704;23.384;2024-02-23T13:40:20;2.63;;;2.43;;
4616;SDS011;2321;42.704;23.384;2024-02-23T13:42:47;1.63;;;1.53;;
4616;SDS011;2321;42.704;23.384;2024-02-23T13:45:15;1.70;;;1.60;;
4616;SDS011;2321;42.704;23.384;2024-02-23T13:47:43;4.73;;;1.27;;
4616;SDS011;2321;42.704;23.384;2024-02-23T13:55:16;1.70;;;1.60;;
4616;SDS011;2321;42.704;23.384;2024-02-23T13:57:44;1.50;;;1.50;;
4616;SDS011;2321;42.704;23.384;2024-02-23T14:00:12;1.53;;;1.43;;
4616;SDS011;2321;42.704;23.384;2024-02-23T14:02:40;2.90;;;2.67;;
4616;SDS011;2321;42.704;23.384;2024-02-23T14:05:07;1.83;;;1.73;;
4616;SDS011;2321;42.704;23.384;2024-02-23T14:07:36;4.90;;;2.60;;
4616;SDS011;2321;42.704;23.384;2024-02-23T14:10:03;4.17;;;2.60;;
4616;SDS011;2321;42.704;23.384;2024-02-23T14:12:31;10.77;;;1.70;;
4616;SDS011;2321;42.704;23.384;2024-02-23T14:14:58;2.00;;;1.90;;
4616;SDS011;2321;42.704;23.384;2024-02-23T14:17:26;2.93;;;1.77;;
4616;SDS011;2321;42.704;23.384;2024-02-23T14:19:53;1.70;;;1.60;;
4616;SDS011;2321;42.704;23.384;2024-02-23T14:22:21;2.37;;;1.70;;
4616;SDS011;2321;42.704;23.384;2024-02-23T14:24:49;1.30;;;1.30;;
4616;SDS011;2321;42.704;23.384;2024-02-23T14:27:17;2.20;;;1.80;;
4616;SDS011;2321;42.704;23.384;2024-02-23T14:29:44;1.53;;;1.53;;
4616;SDS011;2321;42.704;23.384;2024-02-23T14:32:11;1.60;;;1.60;;
4616;SDS011;2321;42.704;23.384;2024-02-23T14:34:42;2.50;;;2.37;;
4616;SDS011;2321;42.704;23.384;2024-02-23T14:37:10;2.73;;;2.53;;
4616;SDS011;2321;42.704;23.384;2024-02-23T14:39:37;2.10;;;1.50;;
4616;SDS011;2321;42.704;23.384;2024-02-23T14:42:06;7.40;;;3.50;;
4616;SDS011;2321;42.704;23.384;2024-02-23T14:44:34;1.97;;;1.87;;
4616;SDS011;2321;42.704;23.384;2024-02-23T14:47:02;15.43;;;1.80;;
4616;SDS011;2321;42.704;23.384;2024-02-23T14:49:30;1.40;;;1.40;;
4616;SDS011;2321;42.704;23.384;2024-02-23T14:51:57;1.70;;;1.70;;
4616;SDS011;2321;42.704;23.384;2024-02-23T14:54:24;65.00;;;24.07;;
4616;SDS011;2321;42.704;23.384;2024-02-23T14:56:52;8.23;;;3.83;;
4616;SDS011;2321;42.704;23.384;2024-02-23T14:59:20;1.87;;;1.77;;
4616;SDS011;2321;42.704;23.384;2024-02-23T15:01:47;1.67;;;1.60;;
4616;SDS011;2321;42.704;23.384;2024-02-23T15:04:14;1.47;;;1.47;;
4616;SDS011;2321;42.704;23.384;2024-02-23T15:06:41;1.50;;;1.50;;